Time;durP1;ratioP1;P1;durP2;ratioP2;P2;SDS_P1;SDS_P2;PMS_P1;PMS_P2;Temp;Humidity;BMP_temperature;BMP_pressure;BME280_temperature;BME280_humidity;BME280_pressure;Samples;Min_cycle;Max_cycle;Signal;HPM_P1;HPM_P2
2023/12/18 00:00:48;;;;;;;;;26.75;22.75;;;;;6.00;79.24;102935.06;4973903;28;51058;-85
2023/12/18 00:03:13;;;;;;;;;25.50;23.00;;;;;6.19;78.60;102959.72;4975352;28;45349;-84
2023/12/18 00:05:40;;;;;;;;;20.00;18.00;;;;;6.24;78.68;102952.66;4990215;28;45647;-83
2023/12/18 00:08:05;;;;;;;;;31.25;24.00;;;;;6.29;77.70;102953.56;4974092;28;46174;-83
2023/12/18 00:10:31;;;;;;;;;23.25;23.25;;;;;6.23;78.07;102948.25;4976409;28;45294;-85
2023/12/18 00:12:56;;;;;;;;;28.75;21.25;;;;;6.24;77.95;102946.50;4973842;28;52008;-84
2023/12/18 00:15:21;;;;;;;;;25.75;20.00;;;;;6.09;77.98;102932.41;4974250;28;45512;-86
2023/12/18 00:17:47;;;;;;;;;26.50;23.75;;;;;6.23;77.81;102935.03;4973170;28;59093;-84
2023/12/18 00:20:12;;;;;;;;;24.25;24.25;;;;;6.21;78.30;102920.94;4973637;28;53074;-84
2023/12/18 00:22:37;;;;;;;;;30.75;26.25;;;;;6.29;78.67;102929.78;4973651;28;45212;-84
2023/12/18 00:25:03;;;;;;;;;32.25;25.50;;;;;6.33;78.23;102931.50;4982679;28;54753;-85
2023/12/18 00:27:28;;;;;;;;;24.25;24.25;;;;;6.31;78.42;102937.69;4973399;28;45564;-85
2023/12/18 00:29:53;;;;;;;;;26.75;23.75;;;;;6.27;78.33;102944.75;4973065;28;57807;-85
2023/12/18 00:32:19;;;;;;;;;26.75;23.50;;;;;6.20;77.13;102933.28;4973557;28;45164;-85
2023/12/18 00:34:44;;;;;;;;;24.25;20.50;;;;;6.22;77.20;102943.84;4977065;27;45659;-85
2023/12/18 00:37:09;;;;;;;;;22.00;19.25;;;;;6.17;78.27;102935.06;4976220;28;45319;-86
2023/12/18 00:39:35;;;;;;;;;30.50;26.00;;;;;6.03;77.40;102920.97;4976388;28;45372;-85
2023/12/18 00:42:00;;;;;;;;;23.25;22.50;;;;;6.18;77.57;102948.28;4976601;28;45375;-84
2023/12/18 00:44:25;;;;;;;;;26.75;24.00;;;;;6.18;77.55;102944.75;4976412;28;45283;-85
2023/12/18 00:46:51;;;;;;;;;25.25;22.50;;;;;6.10;77.52;102938.56;4976222;28;45970;-84
2023/12/18 00:49:16;;;;;;;;;35.25;27.50;;;;;6.09;77.75;102942.09;4976667;28;45552;-85
2023/12/18 00:51:41;;;;;;;;;28.00;24.00;;;;;6.14;77.68;102949.16;4976715;28;45240;-85
2023/12/18 00:54:08;;;;;;;;;29.25;25.25;;;;;6.00;76.87;102915.69;4976583;28;46012;-85
2023/12/18 00:56:33;;;;;;;;;31.00;23.00;;;;;5.98;77.82;102926.25;4976092;28;45487;-85
2023/12/18 00:58:58;;;;;;;;;24.25;24.25;;;;;5.84;77.51;102889.22;4976104;28;45428;-84
2023/12/18 01:01:24;;;;;;;;;31.25;31.25;;;;;6.00;77.20;102915.69;4975002;28;45490;-86
2023/12/18 01:03:49;;;;;;;;;29.25;23.50;;;;;5.77;78.30;102897.16;4976757;28;45351;-86
2023/12/18 01:06:14;;;;;;;;;23.50;23.50;;;;;5.82;77.39;102917.41;4979390;28;49356;-85
2023/12/18 01:08:40;;;;;;;;;35.50;28.00;;;;;5.81;78.41;102905.06;4976062;28;45437;-84
2023/12/18 01:11:05;;;;;;;;;27.25;23.25;;;;;5.78;77.96;102883.97;4977260;28;45230;-84
2023/12/18 01:13:30;;;;;;;;;36.25;23.00;;;;;5.81;77.07;102889.22;4976526;28;45366;-86
2023/12/18 01:15:56;;;;;;;;;31.75;23.00;;;;;5.72;78.00;102868.09;4975111;28;68852;-84
2023/12/18 01:18:22;;;;;;;;;29.75;24.00;;;;;5.78;77.95;102894.53;4975839;28;45342;-84
2023/12/18 01:20:47;;;;;;;;;26.00;22.75;;;;;5.71;78.02;102898.03;4976382;28;45390;-83
2023/12/18 01:23:13;;;;;;;;;21.75;16.50;;;;;5.61;78.67;102899.78;4976201;28;45216;-85
2023/12/18 01:25:39;;;;;;;;;24.25;23.00;;;;;5.57;78.92;102895.38;4975845;28;45484;-84
2023/12/18 01:28:04;;;;;;;;;23.75;23.00;;;;;5.63;78.37;102894.50;4975573;28;54294;-85
2023/12/18 01:30:30;;;;;;;;;28.50;28.00;;;;;5.62;78.32;102903.31;4975911;28;45389;-82
2023/12/18 01:32:55;;;;;;;;;23.25;22.00;;;;;5.62;79.16;102898.91;4975970;28;45572;-85
2023/12/18 01:35:20;;;;;;;;;27.25;21.75;;;;;5.47;77.76;102892.72;4989504;28;45896;-82
2023/12/18 01:37:46;;;;;;;;;28.25;26.25;;;;;5.59;78.48;102908.56;4994185;27;45424;-84
2023/12/18 01:40:12;;;;;;;;;37.25;27.75;;;;;5.57;78.28;102902.41;5010582;27;45399;-84
2023/12/18 01:42:39;;;;;;;;;33.50;26.00;;;;;5.66;77.70;102907.72;4988913;27;45361;-83
2023/12/18 01:45:05;;;;;;;;;24.75;23.25;;;;;5.72;77.35;102906.81;4975492;28;46219;-83
2023/12/18 01:47:30;;;;;;;;;26.75;22.00;;;;;5.72;77.32;102898.91;4975639;28;45335;-84
2023/12/18 01:49:55;;;;;;;;;28.50;22.00;;;;;5.70;76.51;102900.66;4975356;28;45844;-84
2023/12/18 01:52:21;;;;;;;;;20.00;19.50;;;;;5.71;76.93;102897.16;4975675;28;45301;-84
2023/12/18 01:54:46;;;;;;;;;25.75;19.25;;;;;5.74;76.28;102903.34;4975917;28;45796;-83
2023/12/18 01:57:15;;;;;;;;;27.50;22.00;;;;;5.81;76.94;102891.88;4975373;28;45519;-83
2023/12/18 01:59:40;;;;;;;;;25.25;21.75;;;;;5.86;76.87;102894.53;4975502;28;45417;-84
2023/12/18 02:02:06;;;;;;;;;30.75;26.00;;;;;5.93;76.22;102903.38;4975727;28;45385;-84
2023/12/18 02:04:32;;;;;;;;;27.25;23.75;;;;;5.69;76.13;102877.78;4976770;28;45550;-83
2023/12/18 02:07:00;;;;;;;;;20.50;20.50;;;;;5.96;76.36;102914.81;4975241;28;45420;-82
2023/12/18 02:09:26;;;;;;;;;27.75;20.25;;;;;5.94;75.23;102911.28;4975446;28;45273;-82
2023/12/18 02:11:52;;;;;;;;;20.00;15.25;;;;;5.90;75.82;102909.53;4975666;28;45517;-84
2023/12/18 02:14:17;;;;;;;;;15.50;10.50;;;;;5.87;76.05;102910.38;4974993;28;60678;-82
2023/12/18 02:16:42;;;;;;;;;20.25;19.75;;;;;5.75;76.23;102891.88;4974868;28;53484;-83
2023/12/18 02:19:28;;;;;;;;;23.00;19.00;;;;;5.80;75.85;102911.25;4975635;28;48131;-82
2023/12/18 02:21:57;;;;;;;;;20.25;20.25;;;;;5.55;75.91;102870.75;4975641;28;45294;-84
2023/12/18 02:24:23;;;;;;;;;21.00;20.25;;;;;5.50;75.77;102863.72;4976281;28;45429;-83
2023/12/18 02:26:48;;;;;;;;;23.25;22.00;;;;;5.66;75.72;102877.78;4975805;28;45448;-82
2023/12/18 02:29:15;;;;;;;;;24.75;18.50;;;;;5.75;75.29;102883.09;4979227;28;45401;-81
2023/12/18 02:31:40;;;;;;;;;27.00;22.75;;;;;5.85;75.12;102893.63;4975744;28;45530;-83
2023/12/18 02:34:06;;;;;;;;;25.50;18.25;;;;;5.80;75.50;102887.47;4975080;28;45904;-82
2023/12/18 02:36:31;;;;;;;;;19.00;17.75;;;;;5.90;75.16;102899.84;4975137;28;45187;-84
2023/12/18 02:38:57;;;;;;;;;22.50;18.25;;;;;5.80;75.22;102878.69;4975540;28;45365;-84
2023/12/18 02:41:22;;;;;;;;;21.75;19.75;;;;;5.80;75.12;102876.91;4975435;28;45585;-83
2023/12/18 02:43:48;;;;;;;;;23.75;19.50;;;;;5.97;74.29;102903.34;4974752;28;46029;-84
2023/12/18 02:46:13;;;;;;;;;29.00;22.00;;;;;5.96;74.42;102898.06;4974772;28;45171;-84
2023/12/18 02:48:38;;;;;;;;;25.25;23.00;;;;;5.97;74.68;102907.75;4973896;28;58972;-84
2023/12/18 02:51:04;;;;;;;;;23.25;23.25;;;;;5.99;74.03;102900.69;4994171;28;45248;-86
2023/12/18 02:53:29;;;;;;;;;32.00;24.25;;;;;5.86;75.00;102905.97;4994309;28;46130;-84
2023/12/18 02:55:55;;;;;;;;;17.25;17.25;;;;;5.79;74.89;102904.19;4993748;28;45307;-82
2023/12/18 02:58:22;;;;;;;;;21.75;19.50;;;;;5.83;74.88;102900.69;5007932;27;45693;-84
2023/12/18 03:00:48;;;;;;;;;24.25;22.00;;;;;5.86;75.03;102903.34;4976289;28;45658;-83
2023/12/18 03:03:13;;;;;;;;;25.00;19.50;;;;;5.84;74.97;102898.91;4974518;28;45431;-84
2023/12/18 03:05:39;;;;;;;;;23.00;21.25;;;;;5.84;75.24;102897.16;4974687;28;45386;-84
2023/12/18 03:08:05;;;;;;;;;30.50;21.50;;;;;5.78;74.61;102886.59;4989891;28;45559;-84
2023/12/18 03:10:30;;;;;;;;;22.00;19.75;;;;;5.80;74.94;102887.47;4978974;27;45482;-83
2023/12/18 03:12:55;;;;;;;;;18.50;15.25;;;;;5.85;74.71;102885.72;4974304;28;45856;-83
2023/12/18 03:15:21;;;;;;;;;9.75;7.00;;;;;6.00;75.02;102905.13;4974775;28;45168;-83
2023/12/18 03:17:46;;;;;;;;;21.50;21.50;;;;;6.02;74.13;102904.25;4974832;28;45265;-83
2023/12/18 03:20:12;;;;;;;;;18.25;17.75;;;;;5.99;74.71;102890.13;4974665;28;45218;-83
2023/12/18 03:22:37;;;;;;;;;22.00;18.75;;;;;5.91;74.14;102882.25;4974337;28;45299;-82
2023/12/18 03:25:04;;;;;;;;;19.50;16.50;;;;;6.03;74.50;102905.13;4974380;28;45251;-82
2023/12/18 03:27:29;;;;;;;;;25.75;23.25;;;;;5.98;74.07;102885.75;4974438;28;45303;-83
2023/12/18 03:29:54;;;;;;;;;21.50;19.00;;;;;5.91;74.37;102891.03;4975098;28;45475;-83
2023/12/18 03:32:19;;;;;;;;;18.50;16.25;;;;;5.75;75.06;102897.16;4974686;28;54790;-84
2023/12/18 03:34:45;;;;;;;;;26.75;21.75;;;;;5.57;75.00;102895.38;4975055;28;45223;-84
2023/12/18 03:37:10;;;;;;;;;27.00;19.00;;;;;5.56;75.29;102898.00;4990612;27;45856;-84
2023/12/18 03:39:35;;;;;;;;;22.50;18.50;;;;;5.52;75.49;102890.97;4974880;28;45308;-82
2023/12/18 03:42:01;;;;;;;;;26.00;19.75;;;;;5.44;76.04;102892.72;4973969;28;46294;-83
2023/12/18 03:44:26;;;;;;;;;16.50;16.50;;;;;5.41;76.26;102874.25;4974699;28;45308;-82
2023/12/18 03:46:51;;;;;;;;;24.75;18.25;;;;;5.56;75.81;102888.34;4974388;28;45361;-83
2023/12/18 03:49:17;;;;;;;;;17.75;17.75;;;;;5.63;76.25;102894.50;4974442;28;45465;-83
2023/12/18 03:51:42;;;;;;;;;26.00;19.75;;;;;5.65;75.76;102892.75;4973703;28;60075;-83
2023/12/18 03:54:07;;;;;;;;;21.00;19.50;;;;;5.51;75.86;102897.13;4974311;28;45829;-83
2023/12/18 03:56:32;;;;;;;;;22.75;20.75;;;;;5.51;75.88;102899.78;4973687;28;63437;-84
2023/12/18 03:58:58;;;;;;;;;22.25;12.75;;;;;5.45;76.24;102905.91;4974144;28;49513;-83
2023/12/18 04:01:23;;;;;;;;;21.75;18.00;;;;;5.35;77.46;102909.44;4973613;28;51605;-83
2023/12/18 04:03:48;;;;;;;;;18.50;17.25;;;;;5.32;76.76;102917.31;4973959;28;45632;-84
2023/12/18 04:06:14;;;;;;;;;22.00;19.25;;;;;5.22;77.01;102905.88;4973403;28;57756;-83
2023/12/18 04:08:39;;;;;;;;;24.50;20.00;;;;;5.15;77.52;102912.00;4975097;28;46045;-83
2023/12/18 04:11:13;;;;;;;;;19.75;19.75;;;;;5.22;78.17;102907.63;4976408;28;57639;-83
2023/12/18 04:13:39;;;;;;;;;22.75;19.25;;;;;5.35;77.73;102908.53;4991830;28;45430;-83
2023/12/18 04:16:05;;;;;;;;;24.25;21.25;;;;;5.40;77.63;102890.94;4976832;28;45376;-83
2023/12/18 04:18:30;;;;;;;;;18.00;14.25;;;;;5.51;77.40;102902.41;4977368;28;45608;-83
2023/12/18 04:20:56;;;;;;;;;25.00;15.50;;;;;5.46;77.10;102902.38;4976259;28;65974;-83
2023/12/18 04:23:21;;;;;;;;;21.75;21.50;;;;;5.47;76.57;102883.06;4976614;28;45210;-83
2023/12/18 04:25:46;;;;;;;;;31.25;23.00;;;;;5.41;77.22;102892.72;4976750;28;45366;-85
2023/12/18 04:28:12;;;;;;;;;26.00;19.25;;;;;5.38;77.30;102896.22;4976785;28;45323;-85
2023/12/18 04:30:38;;;;;;;;;26.25;19.75;;;;;5.30;77.28;102898.84;4976461;28;45520;-84
2023/12/18 04:33:04;;;;;;;;;20.25;18.50;;;;;5.38;77.13;102901.50;4976606;28;45339;-85
2023/12/18 04:35:29;;;;;;;;;23.50;21.25;;;;;5.47;76.50;102903.25;4977119;28;45287;-83
2023/12/18 04:37:54;;;;;;;;;21.00;17.75;;;;;5.32;76.81;102881.25;4978091;28;45188;-82
2023/12/18 04:40:19;;;;;;;;;24.25;21.50;;;;;5.42;76.65;102894.47;4976965;28;51345;-84
2023/12/18 04:42:45;;;;;;;;;24.50;21.50;;;;;5.50;77.07;102898.03;4976249;28;46206;-84
2023/12/18 04:45:10;;;;;;;;;27.50;24.50;;;;;5.48;76.98;102889.22;4975255;28;45302;-85
2023/12/18 04:47:36;;;;;;;;;23.50;22.00;;;;;5.30;76.42;102853.97;4976907;28;45382;-83
2023/12/18 04:50:01;;;;;;;;;19.75;18.50;;;;;5.49;76.77;102886.59;4976456;28;45996;-84
2023/12/18 04:52:27;;;;;;;;;24.75;23.00;;;;;5.44;76.61;102882.16;4976695;28;45335;-82
2023/12/18 04:54:53;;;;;;;;;24.25;21.00;;;;;5.57;77.39;102884.81;4975790;28;60794;-83
2023/12/18 04:57:18;;;;;;;;;25.75;23.25;;;;;5.62;76.61;102880.44;4976686;28;45624;-84
2023/12/18 04:59:44;;;;;;;;;25.50;21.75;;;;;5.57;76.06;102883.94;4975907;28;45395;-84
2023/12/18 05:02:09;;;;;;;;;23.50;20.00;;;;;5.58;75.71;102888.34;4976130;28;45481;-83
2023/12/18 05:04:34;;;;;;;;;23.00;19.25;;;;;5.48;76.48;102894.50;4975116;28;45326;-82
2023/12/18 05:07:00;;;;;;;;;22.50;18.50;;;;;5.41;76.45;102892.72;4976899;28;45559;-82
2023/12/18 05:09:25;;;;;;;;;18.50;18.50;;;;;5.54;77.04;102889.22;4976084;28;45394;-83
2023/12/18 05:11:50;;;;;;;;;24.25;20.00;;;;;5.51;75.73;102868.97;4986037;28;45522;-82
2023/12/18 05:14:17;;;;;;;;;17.75;17.00;;;;;5.53;75.90;102876.91;4975574;28;45336;-82
2023/12/18 05:16:42;;;;;;;;;24.50;19.25;;;;;5.53;76.07;102877.78;4975826;28;45693;-83
2023/12/18 05:19:08;;;;;;;;;31.25;24.50;;;;;5.51;76.43;102876.03;4975789;28;45885;-83
2023/12/18 05:21:33;;;;;;;;;19.75;17.25;;;;;5.57;75.94;102873.38;4976201;28;45195;-83
2023/12/18 05:23:59;;;;;;;;;27.75;24.25;;;;;5.59;76.65;102874.25;4976271;28;46043;-84
2023/12/18 05:26:24;;;;;;;;;27.25;23.00;;;;;5.50;76.24;102872.50;4976109;28;45267;-84
2023/12/18 05:28:49;;;;;;;;;27.50;22.00;;;;;5.36;77.29;102873.38;4981041;28;46722;-83
2023/12/18 05:31:16;;;;;;;;;30.00;21.75;;;;;5.29;76.78;102880.38;4975441;28;45191;-84
2023/12/18 05:33:42;;;;;;;;;33.00;19.25;;;;;5.30;77.59;102888.28;4977642;28;45349;-83
2023/12/18 05:36:08;;;;;;;;;25.75;21.50;;;;;5.27;78.02;102893.56;4979084;28;45528;-82
2023/12/18 05:38:33;;;;;;;;;30.75;25.50;;;;;5.30;78.24;102888.28;4976316;28;46064;-82
2023/12/18 05:40:58;;;;;;;;;30.25;23.50;;;;;5.23;76.77;102901.47;4978058;28;47984;-83
2023/12/18 05:43:23;;;;;;;;;22.75;18.50;;;;;4.95;78.41;102866.22;4974410;28;45311;-84
2023/12/18 05:45:49;;;;;;;;;36.25;28.00;;;;;5.14;78.30;102894.41;4977096;28;45409;-84
2023/12/18 05:48:14;;;;;;;;;25.25;24.25;;;;;5.19;77.44;102883.84;4979220;28;58871;-82
2023/12/18 05:50:39;;;;;;;;;23.50;19.00;;;;;5.24;77.58;102890.03;4975715;28;45514;-84
2023/12/18 05:53:05;;;;;;;;;18.50;18.50;;;;;5.33;77.73;102892.69;4975681;28;45305;-83
2023/12/18 05:55:30;;;;;;;;;15.25;13.00;;;;;5.21;76.65;102874.22;4976226;28;45635;-84
2023/12/18 05:57:56;;;;;;;;;18.25;17.25;;;;;5.29;77.46;102886.53;4984913;28;45254;-84
2023/12/18 06:00:21;;;;;;;;;25.75;18.75;;;;;5.35;76.56;102880.41;4993429;28;45196;-84
2023/12/18 06:02:47;;;;;;;;;29.00;20.75;;;;;5.40;76.08;102876.00;4975609;28;45224;-85
2023/12/18 06:05:12;;;;;;;;;23.00;18.75;;;;;5.35;76.27;102858.41;4976875;28;45250;-85
2023/12/18 06:07:39;;;;;;;;;16.75;16.75;;;;;5.46;76.34;102869.84;4975177;28;54519;-83
2023/12/18 06:10:05;;;;;;;;;23.75;18.50;;;;;5.48;75.51;102865.47;4975857;28;45530;-84
2023/12/18 06:12:32;;;;;;;;;25.75;18.50;;;;;5.52;75.48;102870.75;4976494;28;45626;-84
2023/12/18 06:14:57;;;;;;;;;20.75;18.75;;;;;5.55;74.76;102880.41;4976054;28;45472;-84
2023/12/18 06:17:23;;;;;;;;;23.00;20.00;;;;;5.45;75.65;102868.97;4976843;28;46093;-84
2023/12/18 06:19:49;;;;;;;;;22.50;20.25;;;;;5.41;75.30;102861.94;4974210;27;45458;-84
2023/12/18 06:22:14;;;;;;;;;26.25;18.00;;;;;5.58;74.61;102888.34;4975473;28;45385;-84
2023/12/18 06:24:40;;;;;;;;;20.75;17.50;;;;;5.51;74.64;102886.56;4975596;28;45387;-83
2023/12/18 06:27:05;;;;;;;;;20.00;17.50;;;;;5.38;75.14;102867.22;4975272;28;46278;-84
2023/12/18 06:29:30;;;;;;;;;19.25;18.00;;;;;5.40;74.41;102878.63;4994157;27;45338;-85
2023/12/18 06:31:56;;;;;;;;;21.50;20.00;;;;;5.47;74.60;102895.34;4988466;28;45464;-84
2023/12/18 06:34:21;;;;;;;;;18.00;18.00;;;;;5.57;74.59;102902.41;4995623;27;45713;-86
2023/12/18 06:36:47;;;;;;;;;26.25;20.00;;;;;5.53;74.30;102908.56;4996148;28;46187;-84
2023/12/18 06:39:13;;;;;;;;;20.00;17.25;;;;;5.47;74.36;102882.16;4994473;27;45370;-83
2023/12/18 06:41:39;;;;;;;;;21.50;19.25;;;;;5.56;73.33;102898.00;4993480;27;45318;-84
2023/12/18 06:44:05;;;;;;;;;21.50;18.50;;;;;5.50;73.93;102895.38;4995242;27;45322;-84
2023/12/18 06:46:31;;;;;;;;;29.25;23.75;;;;;5.53;73.23;102905.94;4986698;27;47017;-82
2023/12/18 06:48:57;;;;;;;;;21.00;18.00;;;;;5.60;74.04;102899.81;4985422;28;45331;-84
2023/12/18 06:51:22;;;;;;;;;15.25;15.00;;;;;5.63;73.80;102895.41;5001132;27;45327;-83
2023/12/18 06:53:48;;;;;;;;;25.50;22.75;;;;;5.66;73.53;102893.63;4996185;28;45385;-84
2023/12/18 06:56:13;;;;;;;;;18.25;17.25;;;;;5.66;73.44;102891.88;5028146;27;47110;-83
2023/12/18 06:58:39;;;;;;;;;24.25;16.50;;;;;5.58;73.38;102897.13;5013806;28;45344;-83
2023/12/18 07:01:04;;;;;;;;;22.00;19.75;;;;;5.59;74.14;102903.28;4993500;28;45464;-83
2023/12/18 07:03:30;;;;;;;;;25.00;18.25;;;;;5.61;73.12;102899.78;4975677;28;45660;-83
2023/12/18 07:05:55;;;;;;;;;18.50;17.25;;;;;5.65;74.12;102899.78;4977745;28;67997;-86
2023/12/18 07:08:21;;;;;;;;;21.50;18.00;;;;;5.44;73.83;102871.59;4986054;28;46005;-82
2023/12/18 07:10:47;;;;;;;;;22.50;19.50;;;;;5.53;73.79;102892.72;4979722;28;45407;-81
2023/12/18 07:13:12;;;;;;;;;18.00;17.00;;;;;5.41;73.79;102901.50;4985983;28;45442;-82
2023/12/18 07:15:37;;;;;;;;;16.00;15.75;;;;;5.39;74.35;102908.53;4984273;28;54611;-81
2023/12/18 07:18:07;;;;;;;;;16.75;16.75;;;;;5.29;73.79;102890.94;4976022;27;45501;-83
2023/12/18 07:20:32;;;;;;;;;20.25;17.50;;;;;5.25;73.63;102897.97;4973174;28;45359;-82
2023/12/18 07:22:57;;;;;;;;;19.50;15.75;;;;;5.25;74.45;102929.63;4973331;28;45338;-82
2023/12/18 07:25:23;;;;;;;;;22.50;15.50;;;;;4.97;74.26;102906.66;4984127;28;55490;-81
2023/12/18 07:27:49;;;;;;;;;16.50;16.50;;;;;4.88;74.47;102906.59;4993353;28;45837;-82
2023/12/18 07:30:14;;;;;;;;;22.25;20.00;;;;;4.86;75.64;102932.09;4993820;28;45331;-82
2023/12/18 07:32:40;;;;;;;;;19.00;17.75;;;;;4.85;75.38;102943.50;4994319;28;45541;-82
2023/12/18 07:35:06;;;;;;;;;23.00;17.50;;;;;4.98;75.53;102934.78;4988573;28;63379;-82
2023/12/18 07:37:31;;;;;;;;;23.25;18.25;;;;;5.00;75.73;102926.00;5003701;27;45507;-82
2023/12/18 07:39:58;;;;;;;;;26.00;15.25;;;;;5.12;75.51;102933.09;4994854;27;45387;-82
2023/12/18 07:42:24;;;;;;;;;20.50;20.50;;;;;5.02;75.00;102928.66;4993731;28;45378;-83
2023/12/18 07:44:49;;;;;;;;;19.00;16.25;;;;;4.97;75.43;102922.47;4993764;28;45678;-82
2023/12/18 07:47:15;;;;;;;;;12.75;11.00;;;;;5.08;75.38;102941.88;4994205;28;45184;-82
2023/12/18 07:49:40;;;;;;;;;17.00;14.75;;;;;5.10;75.05;102934.84;4986738;28;45411;-83
2023/12/18 07:52:06;;;;;;;;;17.75;16.75;;;;;5.21;74.70;102938.41;4989746;27;45713;-80
2023/12/18 07:54:31;;;;;;;;;17.00;15.75;;;;;5.18;74.13;102930.47;4986006;28;47756;-84
2023/12/18 07:56:56;;;;;;;;;24.75;19.50;;;;;5.26;74.28;102936.66;4976707;28;52267;-85
2023/12/18 07:59:22;;;;;;;;;25.00;19.00;;;;;5.09;73.83;102911.97;4992884;28;45416;-84
2023/12/18 08:01:47;;;;;;;;;21.50;19.75;;;;;5.30;73.31;102946.31;4990687;28;45905;-85
2023/12/18 08:04:13;;;;;;;;;22.75;17.75;;;;;5.19;74.08;102932.22;4998076;28;45291;-84
2023/12/18 08:06:38;;;;;;;;;20.75;17.50;;;;;5.29;73.06;102941.94;4999413;27;59772;-82
2023/12/18 08:09:03;;;;;;;;;21.50;16.50;;;;;5.30;73.91;102942.81;5098823;27;45320;-84
2023/12/18 08:11:29;;;;;;;;;22.00;21.00;;;;;5.13;73.16;102918.13;5021152;27;45647;-85
2023/12/18 08:13:54;;;;;;;;;21.25;19.50;;;;;5.15;74.06;102933.09;4994111;28;45332;-83
2023/12/18 08:16:20;;;;;;;;;24.00;20.00;;;;;5.19;74.62;102929.56;4994163;27;45495;-84
2023/12/18 08:18:46;;;;;;;;;18.75;18.00;;;;;5.27;74.10;102943.69;4994589;27;45318;-84
2023/12/18 08:21:13;;;;;;;;;22.25;21.50;;;;;5.15;74.01;102948.03;4985899;28;45263;-81
2023/12/18 08:23:40;;;;;;;;;22.25;22.25;;;;;4.97;74.55;102946.22;4975841;28;45276;-83
2023/12/18 08:26:05;;;;;;;;;23.50;18.75;;;;;4.88;74.42;102944.41;4988977;28;45231;-84
2023/12/18 08:28:31;;;;;;;;;22.00;18.00;;;;;4.65;75.13;102894.19;5015260;27;45706;-83
2023/12/18 08:30:56;;;;;;;;;34.25;27.25;;;;;4.96;74.79;102926.00;5097060;27;45677;-85
2023/12/18 08:33:21;;;;;;;;;24.00;20.00;;;;;5.10;75.39;102932.22;5094941;27;45463;-84
2023/12/18 08:35:47;;;;;;;;;25.00;18.75;;;;;5.24;74.63;102933.13;4996828;28;45405;-84
2023/12/18 08:38:13;;;;;;;;;27.50;24.25;;;;;5.20;74.20;102931.34;4980559;28;45333;-84
2023/12/18 08:40:38;;;;;;;;;24.25;21.25;;;;;5.24;74.30;102919.06;4986794;28;45565;-86
2023/12/18 08:43:04;;;;;;;;;22.25;19.75;;;;;5.30;73.55;102932.25;4995360;28;45466;-85
2023/12/18 08:45:29;;;;;;;;;22.50;17.00;;;;;5.33;73.49;102926.97;4995522;27;45266;-85
2023/12/18 08:47:59;;;;;;;;;22.00;21.50;;;;;5.38;73.17;102924.38;4994000;28;45893;-83
2023/12/18 08:50:24;;;;;;;;;30.25;22.00;;;;;5.37;73.69;102931.41;4995954;27;45522;-86
2023/12/18 08:52:50;;;;;;;;;32.00;26.25;;;;;5.08;73.60;102922.50;4978610;27;45310;-85
2023/12/18 08:55:15;;;;;;;;;24.25;20.25;;;;;5.01;73.41;102890.84;4994028;28;45251;-87
2023/12/18 08:57:40;;;;;;;;;26.25;21.00;;;;;5.19;73.33;102928.69;4982944;28;45487;-84
2023/12/18 09:00:07;;;;;;;;;21.75;17.50;;;;;5.22;72.57;102919.06;5011434;27;45664;-86
2023/12/18 09:02:33;;;;;;;;;24.25;17.75;;;;;5.31;73.20;102929.63;5087902;27;45485;-89
2023/12/18 09:04:58;;;;;;;;;20.50;19.00;;;;;5.33;71.98;102922.59;5010682;27;45362;-89
2023/12/18 09:07:24;;;;;;;;;19.25;17.75;;;;;5.37;72.70;102922.63;5016813;28;45451;-90
2023/12/18 09:09:50;;;;;;;;;25.75;17.25;;;;;5.11;71.83;102893.53;5026240;27;45271;-86
2023/12/18 09:12:15;;;;;;;;;29.75;22.25;;;;;5.07;72.00;102918.09;5017393;27;45381;-87
2023/12/18 09:14:40;;;;;;;;;34.00;21.50;;;;;4.70;72.37;102866.13;5020367;28;45330;-86
2023/12/18 09:17:06;;;;;;;;;25.50;24.75;;;;;5.08;72.77;102909.31;5002449;28;45395;-89
2023/12/18 09:19:31;;;;;;;;;29.00;22.00;;;;;5.16;72.03;102915.50;5000939;27;45541;-87
2023/12/18 09:21:56;;;;;;;;;17.00;15.00;;;;;5.13;72.80;102919.03;4997567;28;45298;-85
2023/12/18 09:24:21;;;;;;;;;18.25;13.25;;;;;5.01;72.35;102892.59;4997741;28;45364;-86
2023/12/18 09:26:47;;;;;;;;;20.00;18.00;;;;;5.17;72.42;102926.06;4981461;28;45260;-86
2023/12/18 09:29:12;;;;;;;;;23.25;18.25;;;;;5.20;71.57;102910.22;4978732;28;45611;-86
2023/12/18 09:31:38;;;;;;;;;20.75;15.25;;;;;5.31;71.46;102913.78;4978572;28;46093;-86
2023/12/18 09:34:03;;;;;;;;;22.75;20.25;;;;;5.06;70.77;102864.47;4994378;27;45579;-85
2023/12/18 09:36:28;;;;;;;;;22.50;20.75;;;;;5.37;70.35;102910.31;4978224;28;45373;-85
2023/12/18 09:38:54;;;;;;;;;21.50;19.25;;;;;5.32;70.96;102894.44;4977911;28;45603;-86
2023/12/18 09:41:26;;;;;;;;;31.00;22.00;;;;;5.33;70.46;102893.56;4990848;28;55270;-86
2023/12/18 09:43:52;;;;;;;;;25.25;22.25;;;;;5.47;71.27;102916.47;4992541;27;45433;-86
2023/12/18 09:46:22;;;;;;;;;27.00;18.50;;;;;5.47;70.46;102916.47;4988322;28;45397;-86
2023/12/18 09:48:48;;;;;;;;;22.50;19.75;;;;;5.49;70.65;102925.28;4979715;28;45437;-92
2023/12/18 09:51:16;;;;;;;;;28.00;19.25;;;;;5.50;70.43;102929.69;4993188;28;47141;-87
2023/12/18 09:53:42;;;;;;;;;26.50;24.00;;;;;5.47;71.31;102924.38;4999865;28;45460;-87
2023/12/18 09:56:08;;;;;;;;;20.75;18.50;;;;;5.44;70.04;102929.66;4998071;27;45367;-86
2023/12/18 09:58:33;;;;;;;;;30.50;25.00;;;;;5.55;69.95;102927.94;4991020;27;45555;-86
2023/12/18 10:00:59;;;;;;;;;28.25;20.50;;;;;5.53;69.31;102950.81;4991803;27;46382;-87
2023/12/18 10:03:24;;;;;;;;;26.00;20.00;;;;;5.28;70.06;102919.06;4977643;28;45241;-86
2023/12/18 10:05:49;;;;;;;;;28.00;22.25;;;;;5.31;70.24;102924.34;4976696;28;45256;-85
2023/12/18 10:08:15;;;;;;;;;27.75;23.50;;;;;5.48;69.57;102942.00;4980255;27;45344;-87
2023/12/18 10:10:43;;;;;;;;;20.75;19.25;;;;;5.48;69.29;102940.25;4990957;28;45447;-85
2023/12/18 10:13:11;;;;;;;;;19.00;18.00;;;;;5.43;69.57;102922.63;4981184;28;45408;-86
2023/12/18 10:15:39;;;;;;;;;21.50;19.00;;;;;5.39;68.51;102913.81;4997025;27;45477;-87
2023/12/18 10:18:05;;;;;;;;;22.00;22.00;;;;;5.35;68.97;102901.50;5009031;27;45239;-87
2023/12/18 10:20:33;;;;;;;;;24.25;19.25;;;;;5.55;69.25;102922.66;5000750;27;45625;-85
2023/12/18 10:23:00;;;;;;;;;20.00;19.25;;;;;5.49;69.26;102896.25;4997866;28;45370;-86
2023/12/18 10:25:25;;;;;;;;;17.25;16.75;;;;;5.52;68.35;102917.38;4997755;28;45394;-87
2023/12/18 10:27:54;;;;;;;;;22.00;20.25;;;;;5.42;68.13;102910.31;4999808;27;45365;-86
2023/12/18 10:30:20;;;;;;;;;27.00;22.75;;;;;5.15;68.30;102884.72;5014871;27;47056;-86
2023/12/18 10:32:46;;;;;;;;;26.00;24.50;;;;;5.30;69.21;102906.75;4993235;27;45238;-86
2023/12/18 10:35:11;;;;;;;;;21.50;19.00;;;;;5.36;68.60;102919.09;4997651;27;45231;-87
2023/12/18 10:37:39;;;;;;;;;29.00;21.75;;;;;5.29;68.55;102894.44;4996642;28;45501;-87
2023/12/18 10:40:08;;;;;;;;;26.00;24.75;;;;;5.35;69.36;102884.81;5011007;27;47072;-87
2023/12/18 10:42:36;;;;;;;;;20.50;20.00;;;;;5.44;67.28;102914.69;4996500;28;45261;-87
2023/12/18 10:45:03;;;;;;;;;18.25;13.50;;;;;5.18;68.27;102885.59;5012135;27;45337;-86
2023/12/18 10:47:30;;;;;;;;;22.75;16.50;;;;;5.01;68.26;102860.94;4997018;27;45654;-85
2023/12/18 10:49:59;;;;;;;;;19.75;18.50;;;;;5.12;68.26;102885.59;4983740;27;45596;-86
2023/12/18 10:52:30;;;;;;;;;17.50;16.25;;;;;5.25;68.13;102897.97;4978035;28;45309;-86
2023/12/18 10:54:58;;;;;;;;;22.25;18.50;;;;;5.35;67.68;102911.19;4977560;28;45518;-85
2023/12/18 10:57:26;;;;;;;;;21.00;21.00;;;;;5.36;68.71;102910.31;4979784;28;45593;-88
2023/12/18 10:59:52;;;;;;;;;21.25;19.75;;;;;5.41;68.36;102908.53;4979734;28;47019;-86
2023/12/18 11:02:18;;;;;;;;;22.75;17.00;;;;;5.55;67.53;102917.38;4977842;28;45431;-88
2023/12/18 11:04:46;;;;;;;;;22.50;20.75;;;;;5.54;67.34;102923.53;4976405;28;45350;-86
2023/12/18 11:07:16;;;;;;;;;11.25;11.25;;;;;5.45;67.46;102905.03;4984589;27;44908;-88
2023/12/18 11:09:43;;;;;;;;;21.75;18.75;;;;;5.52;68.33;102915.63;4975784;27;45338;-87